sensor_id;sensor_type;location;lat;lon;timestamp;P1;durP1;ratioP1;P2;durP2;ratioP2
842;SDS011;407;48.884;9.126;2023-05-10T00:00:55;3.80;;;0.60;;
842;SDS011;407;48.884;9.126;2023-05-10T00:03:21;3.60;;;0.47;;
842;SDS011;407;48.884;9.126;2023-05-10T00:05:47;3.60;;;0.55;;
842;SDS011;407;48.884;9.126;2023-05-10T00:08:13;3.40;;;0.50;;
842;SDS011;407;48.884;9.126;2023-05-10T00:10:38;3.50;;;0.40;;
842;SDS011;407;48.884;9.126;2023-05-10T00:13:05;3.40;;;0.40;;
842;SDS011;407;48.884;9.126;2023-05-10T00:15:31;3.72;;;0.52;;
842;SDS011;407;48.884;9.126;2023-05-10T00:17:57;5.10;;;0.40;;
842;SDS011;407;48.884;9.126;2023-05-10T00:20:22;3.60;;;0.50;;
842;SDS011;407;48.884;9.126;2023-05-10T00:22:48;3.50;;;0.50;;
842;SDS011;407;48.884;9.126;2023-05-10T00:25:14;3.47;;;0.40;;
842;SDS011;407;48.884;9.126;2023-05-10T00:27:39;3.40;;;0.40;;
842;SDS011;407;48.884;9.126;2023-05-10T00:30:05;3.40;;;0.40;;
842;SDS011;407;48.884;9.126;2023-05-10T00:32:31;3.33;;;0.30;;
842;SDS011;407;48.884;9.126;2023-05-10T00:34:57;3.90;;;0.50;;
842;SDS011;407;48.884;9.126;2023-05-10T00:37:22;3.40;;;0.50;;
842;SDS011;407;48.884;9.126;2023-05-10T00:39:48;3.50;;;0.50;;
842;SDS011;407;48.884;9.126;2023-05-10T00:42:14;3.50;;;0.50;;
842;SDS011;407;48.884;9.126;2023-05-10T00:44:39;3.50;;;0.40;;
842;SDS011;407;48.884;9.126;2023-05-10T00:47:05;3.60;;;0.60;;
842;SDS011;407;48.884;9.126;2023-05-10T00:49:31;4.30;;;0.52;;
842;SDS011;407;48.884;9.126;2023-05-10T00:51:57;4.10;;;0.60;;
842;SDS011;407;48.884;9.126;2023-05-10T00:54:23;3.60;;;0.50;;
842;SDS011;407;48.884;9.126;2023-05-10T00:56:49;4.10;;;0.60;;
842;SDS011;407;48.884;9.126;2023-05-10T00:59:16;4.60;;;0.50;;
842;SDS011;407;48.884;9.126;2023-05-10T01:01:43;3.63;;;0.50;;
842;SDS011;407;48.884;9.126;2023-05-10T01:04:10;4.40;;;0.70;;
842;SDS011;407;48.884;9.126;2023-05-10T01:06:38;3.63;;;0.60;;
842;SDS011;407;48.884;9.126;2023-05-10T01:09:04;3.50;;;0.50;;
842;SDS011;407;48.884;9.126;2023-05-10T01:11:36;3.70;;;0.87;;
842;SDS011;407;48.884;9.126;2023-05-10T01:14:02;3.80;;;0.80;;
842;SDS011;407;48.884;9.126;2023-05-10T01:16:35;3.60;;;0.60;;
842;SDS011;407;48.884;9.126;2023-05-10T01:19:04;4.15;;;0.82;;
842;SDS011;407;48.884;9.126;2023-05-10T01:21:36;3.80;;;0.70;;
842;SDS011;407;48.884;9.126;2023-05-10T01:35:46;4.30;;;1.00;;
842;SDS011;407;48.884;9.126;2023-05-10T01:38:29;4.10;;;1.02;;
842;SDS011;407;48.884;9.126;2023-05-10T01:44:20;4.22;;;0.85;;
842;SDS011;407;48.884;9.126;2023-05-10T01:46:43;4.20;;;1.00;;
842;SDS011;407;48.884;9.126;2023-05-10T01:49:16;4.53;;;1.00;;
842;SDS011;407;48.884;9.126;2023-05-10T01:51:59;4.10;;;1.05;;
842;SDS011;407;48.884;9.126;2023-05-10T01:54:31;4.03;;;1.00;;
842;SDS011;407;48.884;9.126;2023-05-10T01:57:03;4.17;;;0.90;;
842;SDS011;407;48.884;9.126;2023-05-10T01:59:33;4.03;;;0.90;;
842;SDS011;407;48.884;9.126;2023-05-10T02:02:06;4.20;;;1.08;;
842;SDS011;407;48.884;9.126;2023-05-10T02:04:33;4.80;;;1.20;;
842;SDS011;407;48.884;9.126;2023-05-10T02:07:02;4.70;;;1.10;;
842;SDS011;407;48.884;9.126;2023-05-10T02:09:29;4.78;;;1.40;;
842;SDS011;407;48.884;9.126;2023-05-10T02:11:58;4.20;;;1.20;;
842;SDS011;407;48.884;9.126;2023-05-10T02:14:27;4.20;;;1.10;;
842;SDS011;407;48.884;9.126;2023-05-10T02:16:55;4.60;;;1.40;;
842;SDS011;407;48.884;9.126;2023-05-10T02:19:23;4.20;;;1.20;;
842;SDS011;407;48.884;9.126;2023-05-10T02:21:50;3.90;;;1.20;;
842;SDS011;407;48.884;9.126;2023-05-10T02:24:16;4.50;;;1.50;;
842;SDS011;407;48.884;9.126;2023-05-10T02:26:44;4.40;;;1.10;;
842;SDS011;407;48.884;9.126;2023-05-10T02:29:12;4.30;;;1.17;;
842;SDS011;407;48.884;9.126;2023-05-10T02:31:39;5.33;;;1.30;;
842;SDS011;407;48.884;9.126;2023-05-10T02:34:08;4.80;;;1.50;;
842;SDS011;407;48.884;9.126;2023-05-10T02:36:36;4.45;;;1.10;;
842;SDS011;407;48.884;9.126;2023-05-10T02:39:04;5.80;;;1.50;;
842;SDS011;407;48.884;9.126;2023-05-10T02:41:34;4.22;;;1.30;;
842;SDS011;407;48.884;9.126;2023-05-10T02:44:01;4.45;;;1.33;;
842;SDS011;407;48.884;9.126;2023-05-10T02:46:28;4.50;;;1.20;;
842;SDS011;407;48.884;9.126;2023-05-10T02:48:54;4.63;;;1.50;;
842;SDS011;407;48.884;9.126;2023-05-10T02:51:20;4.40;;;1.40;;
842;SDS011;407;48.884;9.126;2023-05-10T02:53:52;4.70;;;1.43;;
842;SDS011;407;48.884;9.126;2023-05-10T02:56:23;6.80;;;1.42;;
842;SDS011;407;48.884;9.126;2023-05-10T02:58:53;4.30;;;1.30;;
842;SDS011;407;48.884;9.126;2023-05-10T03:01:20;6.30;;;1.50;;
842;SDS011;407;48.884;9.126;2023-05-10T03:03:46;5.47;;;1.80;;
842;SDS011;407;48.884;9.126;2023-05-10T03:06:11;5.63;;;1.60;;
842;SDS011;407;48.884;9.126;2023-05-10T03:08:37;5.10;;;1.70;;
842;SDS011;407;48.884;9.126;2023-05-10T03:11:14;7.00;;;2.53;;
842;SDS011;407;48.884;9.126;2023-05-10T03:13:52;5.00;;;1.70;;
842;SDS011;407;48.884;9.126;2023-05-10T03:16:36;5.20;;;1.73;;
842;SDS011;407;48.884;9.126;2023-05-10T03:19:11;5.65;;;2.38;;
842;SDS011;407;48.884;9.126;2023-05-10T03:21:52;5.70;;;1.98;;
842;SDS011;407;48.884;9.126;2023-05-10T03:24:21;5.88;;;1.90;;
842;SDS011;407;48.884;9.126;2023-05-10T03:26:48;6.38;;;1.80;;
842;SDS011;407;48.884;9.126;2023-05-10T03:29:15;5.40;;;1.95;;
842;SDS011;407;48.884;9.126;2023-05-10T03:31:42;5.78;;;2.00;;
842;SDS011;407;48.884;9.126;2023-05-10T03:34:08;6.00;;;2.10;;
842;SDS011;407;48.884;9.126;2023-05-10T03:36:33;5.40;;;1.97;;
842;SDS011;407;48.884;9.126;2023-05-10T03:38:59;7.10;;;2.30;;
842;SDS011;407;48.884;9.126;2023-05-10T03:41:25;6.50;;;2.70;;
842;SDS011;407;48.884;9.126;2023-05-10T03:43:51;6.45;;;2.20;;
842;SDS011;407;48.884;9.126;2023-05-10T03:46:16;6.00;;;2.37;;
842;SDS011;407;48.884;9.126;2023-05-10T03:48:42;6.80;;;2.63;;
842;SDS011;407;48.884;9.126;2023-05-10T03:51:08;5.80;;;2.50;;
842;SDS011;407;48.884;9.126;2023-05-10T03:53:33;7.73;;;2.60;;
842;SDS011;407;48.884;9.126;2023-05-10T03:55:59;8.18;;;2.65;;
842;SDS011;407;48.884;9.126;2023-05-10T03:58:24;6.40;;;2.77;;
842;SDS011;407;48.884;9.126;2023-05-10T04:00:50;6.97;;;2.00;;
842;SDS011;407;48.884;9.126;2023-05-10T04:03:16;7.00;;;2.13;;
842;SDS011;407;48.884;9.126;2023-05-10T04:05:42;6.20;;;2.63;;
842;SDS011;407;48.884;9.126;2023-05-10T04:08:08;6.70;;;2.80;;
842;SDS011;407;48.884;9.126;2023-05-10T04:10:34;5.25;;;1.83;;
842;SDS011;407;48.884;9.126;2023-05-10T04:13:00;6.93;;;2.70;;
842;SDS011;407;48.884;9.126;2023-05-10T04:15:25;6.57;;;2.38;;
842;SDS011;407;48.884;9.126;2023-05-10T04:17:51;6.77;;;2.20;;
842;SDS011;407;48.884;9.126;2023-05-10T04:20:17;5.68;;;2.20;;
842;SDS011;407;48.884;9.126;2023-05-10T04:22:42;7.70;;;2.17;;
842;SDS011;407;48.884;9.126;2023-05-10T04:25:08;5.78;;;2.20;;
842;SDS011;407;48.884;9.126;2023-05-10T04:27:34;5.32;;;1.90;;
842;SDS011;407;48.884;9.126;2023-05-10T04:30:00;5.28;;;1.90;;
842;SDS011;407;48.884;9.126;2023-05-10T04:32:25;5.30;;;1.80;;
842;SDS011;407;48.884;9.126;2023-05-10T04:34:51;7.50;;;2.00;;
842;SDS011;407;48.884;9.126;2023-05-10T04:37:17;5.30;;;1.80;;
842;SDS011;407;48.884;9.126;2023-05-10T04:39:43;5.38;;;2.00;;
842;SDS011;407;48.884;9.126;2023-05-10T04:42:08;5.00;;;1.60;;
842;SDS011;407;48.884;9.126;2023-05-10T04:44:35;6.85;;;1.90;;
842;SDS011;407;48.884;9.126;2023-05-10T04:47:01;5.18;;;1.83;;
842;SDS011;407;48.884;9.126;2023-05-10T04:49:27;5.80;;;2.17;;
842;SDS011;407;48.884;9.126;2023-05-10T04:51:54;6.93;;;2.10;;
842;SDS011;407;48.884;9.126;2023-05-10T04:54:20;6.70;;;2.10;;
842;SDS011;407;48.884;9.126;2023-05-10T04:56:45;7.87;;;2.27;;
842;SDS011;407;48.884;9.126;2023-05-10T04:59:11;6.45;;;2.38;;
842;SDS011;407;48.884;9.126;2023-05-10T05:01:36;5.53;;;2.00;;
842;SDS011;407;48.884;9.126;2023-05-10T05:04:02;7.17;;;2.10;;
842;SDS011;407;48.884;9.126;2023-05-10T05:06:28;5.65;;;1.90;;
842;SDS011;407;48.884;9.126;2023-05-10T05:08:53;6.03;;;2.10;;
842;SDS011;407;48.884;9.126;2023-05-10T05:11:19;6.53;;;2.27;;
842;SDS011;407;48.884;9.126;2023-05-10T05:13:45;5.75;;;2.00;;
842;SDS011;407;48.884;9.126;2023-05-10T05:16:11;6.22;;;2.30;;
842;SDS011;407;48.884;9.126;2023-05-10T05:18:37;6.60;;;2.20;;
842;SDS011;407;48.884;9.126;2023-05-10T05:21:02;6.43;;;2.40;;
842;SDS011;407;48.884;9.126;2023-05-10T05:23:28;5.53;;;1.92;;
842;SDS011;407;48.884;9.126;2023-05-10T05:25:54;6.00;;;2.40;;
842;SDS011;407;48.884;9.126;2023-05-10T05:28:20;5.13;;;1.63;;
842;SDS011;407;48.884;9.126;2023-05-10T05:30:46;6.23;;;1.93;;
842;SDS011;407;48.884;9.126;2023-05-10T05:33:13;7.00;;;2.53;;
842;SDS011;407;48.884;9.126;2023-05-10T05:35:39;5.63;;;2.05;;
842;SDS011;407;48.884;9.126;2023-05-10T05:38:04;5.70;;;2.07;;
842;SDS011;407;48.884;9.126;2023-05-10T05:40:31;5.55;;;1.70;;
842;SDS011;407;48.884;9.126;2023-05-10T05:42:56;5.90;;;2.20;;
842;SDS011;407;48.884;9.126;2023-05-10T05:45:22;5.40;;;1.92;;
842;SDS011;407;48.884;9.126;2023-05-10T05:47:47;6.00;;;2.17;;
842;SDS011;407;48.884;9.126;2023-05-10T05:50:13;6.93;;;2.23;;
842;SDS011;407;48.884;9.126;2023-05-10T05:52:38;5.90;;;2.20;;
842;SDS011;407;48.884;9.126;2023-05-10T05:55:04;6.25;;;2.22;;
842;SDS011;407;48.884;9.126;2023-05-10T05:57:30;6.60;;;2.30;;
842;SDS011;407;48.884;9.126;2023-05-10T05:59:56;7.40;;;2.20;;
842;SDS011;407;48.884;9.126;2023-05-10T06:02:22;6.77;;;2.33;;
842;SDS011;407;48.884;9.126;2023-05-10T06:04:47;6.22;;;2.20;;
842;SDS011;407;48.884;9.126;2023-05-10T06:07:13;7.57;;;2.50;;
842;SDS011;407;48.884;9.126;2023-05-10T06:09:38;5.90;;;2.20;;
842;SDS011;407;48.884;9.126;2023-05-10T06:12:04;5.60;;;1.90;;
842;SDS011;407;48.884;9.126;2023-05-10T06:14:30;6.22;;;2.10;;
842;SDS011;407;48.884;9.126;2023-05-10T06:16:55;8.00;;;2.47;;
842;SDS011;407;48.884;9.126;2023-05-10T06:19:21;5.93;;;2.45;;
842;SDS011;407;48.884;9.126;2023-05-10T06:21:47;5.18;;;1.70;;
842;SDS011;407;48.884;9.126;2023-05-10T06:24:12;6.33;;;2.40;;
842;SDS011;407;48.884;9.126;2023-05-10T06:26:38;6.13;;;2.30;;
842;SDS011;407;48.884;9.126;2023-05-10T06:29:03;7.60;;;2.17;;
842;SDS011;407;48.884;9.126;2023-05-10T06:31:30;5.85;;;1.85;;
842;SDS011;407;48.884;9.126;2023-05-10T06:33:55;8.38;;;2.53;;
842;SDS011;407;48.884;9.126;2023-05-10T06:36:21;5.73;;;1.90;;
842;SDS011;407;48.884;9.126;2023-05-10T06:38:47;8.30;;;2.20;;
842;SDS011;407;48.884;9.126;2023-05-10T06:41:13;5.82;;;2.03;;
842;SDS011;407;48.884;9.126;2023-05-10T06:43:39;7.00;;;1.80;;
842;SDS011;407;48.884;9.126;2023-05-10T06:46:06;5.60;;;2.20;;
842;SDS011;407;48.884;9.126;2023-05-10T06:48:32;5.50;;;1.90;;
842;SDS011;407;48.884;9.126;2023-05-10T06:50:57;7.15;;;2.35;;
842;SDS011;407;48.884;9.126;2023-05-10T06:53:23;5.50;;;1.80;;
842;SDS011;407;48.884;9.126;2023-05-10T06:55:49;6.70;;;1.97;;
842;SDS011;407;48.884;9.126;2023-05-10T06:58:15;5.80;;;1.80;;
842;SDS011;407;48.884;9.126;2023-05-10T07:00:41;6.07;;;1.50;;
842;SDS011;407;48.884;9.126;2023-05-10T07:03:09;5.60;;;1.60;;
842;SDS011;407;48.884;9.126;2023-05-10T07:05:35;6.03;;;1.95;;
842;SDS011;407;48.884;9.126;2023-05-10T07:08:00;5.80;;;1.50;;
842;SDS011;407;48.884;9.126;2023-05-10T07:10:26;8.35;;;2.50;;
842;SDS011;407;48.884;9.126;2023-05-10T07:12:52;5.80;;;1.90;;
842;SDS011;407;48.884;9.126;2023-05-10T07:15:17;5.40;;;1.70;;
842;SDS011;407;48.884;9.126;2023-05-10T07:17:43;6.30;;;1.70;;
842;SDS011;407;48.884;9.126;2023-05-10T07:20:09;5.53;;;1.70;;
842;SDS011;407;48.884;9.126;2023-05-10T07:22:35;5.45;;;1.60;;
842;SDS011;407;48.884;9.126;2023-05-10T07:25:01;4.90;;;1.40;;
842;SDS011;407;48.884;9.126;2023-05-10T07:27:28;4.95;;;1.40;;
842;SDS011;407;48.884;9.126;2023-05-10T07:29:53;4.60;;;1.25;;
842;SDS011;407;48.884;9.126;2023-05-10T07:32:19;5.68;;;1.45;;
842;SDS011;407;48.884;9.126;2023-05-10T07:34:46;5.95;;;1.63;;
842;SDS011;407;48.884;9.126;2023-05-10T07:37:11;5.00;;;1.20;;
842;SDS011;407;48.884;9.126;2023-05-10T07:39:37;5.00;;;1.30;;
842;SDS011;407;48.884;9.126;2023-05-10T07:42:03;6.60;;;1.30;;
842;SDS011;407;48.884;9.126;2023-05-10T07:44:28;4.75;;;0.95;;
842;SDS011;407;48.884;9.126;2023-05-10T07:46:54;6.90;;;1.40;;
842;SDS011;407;48.884;9.126;2023-05-10T07:49:20;5.20;;;1.20;;
842;SDS011;407;48.884;9.126;2023-05-10T07:51:46;4.70;;;1.00;;
842;SDS011;407;48.884;9.126;2023-05-10T07:54:12;4.97;;;1.10;;
842;SDS011;407;48.884;9.126;2023-05-10T07:56:38;4.60;;;0.90;;
842;SDS011;407;48.884;9.126;2023-05-10T07:59:07;4.60;;;1.10;;
842;SDS011;407;48.884;9.126;2023-05-10T08:01:34;4.60;;;0.90;;
842;SDS011;407;48.884;9.126;2023-05-10T08:04:00;4.45;;;0.85;;
842;SDS011;407;48.884;9.126;2023-05-10T08:06:26;9.68;;;1.30;;
842;SDS011;407;48.884;9.126;2023-05-10T08:08:54;8.35;;;1.30;;
842;SDS011;407;48.884;9.126;2023-05-10T08:11:20;5.13;;;1.00;;
842;SDS011;407;48.884;9.126;2023-05-10T08:13:46;5.10;;;1.00;;
842;SDS011;407;48.884;9.126;2023-05-10T08:16:12;5.65;;;1.20;;
842;SDS011;407;48.884;9.126;2023-05-10T08:18:39;5.03;;;1.15;;
842;SDS011;407;48.884;9.126;2023-05-10T08:21:04;4.40;;;0.90;;
842;SDS011;407;48.884;9.126;2023-05-10T08:23:30;5.18;;;1.05;;
842;SDS011;407;48.884;9.126;2023-05-10T08:25:56;5.90;;;1.30;;
842;SDS011;407;48.884;9.126;2023-05-10T08:28:21;8.50;;;1.00;;
842;SDS011;407;48.884;9.126;2023-05-10T08:30:47;4.10;;;0.60;;
842;SDS011;407;48.884;9.126;2023-05-10T08:33:14;4.70;;;0.80;;
842;SDS011;407;48.884;9.126;2023-05-10T08:35:40;4.73;;;0.90;;
842;SDS011;407;48.884;9.126;2023-05-10T08:38:06;4.38;;;0.90;;
842;SDS011;407;48.884;9.126;2023-05-10T08:40:32;6.20;;;0.90;;
842;SDS011;407;48.884;9.126;2023-05-10T08:43:08;4.78;;;0.90;;
842;SDS011;407;48.884;9.126;2023-05-10T08:45:37;5.22;;;1.02;;
842;SDS011;407;48.884;9.126;2023-05-10T08:48:13;4.18;;;0.57;;
842;SDS011;407;48.884;9.126;2023-05-10T08:50:40;4.28;;;0.60;;
842;SDS011;407;48.884;9.126;2023-05-10T08:53:09;5.07;;;0.88;;
842;SDS011;407;48.884;9.126;2023-05-10T08:55:36;5.65;;;0.80;;
842;SDS011;407;48.884;9.126;2023-05-10T08:58:04;4.30;;;0.70;;
842;SDS011;407;48.884;9.126;2023-05-10T09:00:30;6.70;;;0.60;;
842;SDS011;407;48.884;9.126;2023-05-10T09:02:57;4.28;;;0.60;;
842;SDS011;407;48.884;9.126;2023-05-10T09:05:23;5.07;;;1.00;;
842;SDS011;407;48.884;9.126;2023-05-10T09:07:49;5.03;;;0.90;;
842;SDS011;407;48.884;9.126;2023-05-10T09:10:15;5.80;;;0.60;;
842;SDS011;407;48.884;9.126;2023-05-10T09:12:41;4.40;;;0.88;;
842;SDS011;407;48.884;9.126;2023-05-10T09:15:09;4.60;;;0.90;;
842;SDS011;407;48.884;9.126;2023-05-10T09:17:35;4.40;;;0.73;;
842;SDS011;407;48.884;9.126;2023-05-10T09:20:03;5.40;;;0.80;;
842;SDS011;407;48.884;9.126;2023-05-10T09:22:32;5.18;;;0.82;;
842;SDS011;407;48.884;9.126;2023-05-10T09:25:05;4.90;;;0.90;;
842;SDS011;407;48.884;9.126;2023-05-10T09:27:38;4.40;;;0.70;;
842;SDS011;407;48.884;9.126;2023-05-10T09:30:06;4.20;;;0.80;;
842;SDS011;407;48.884;9.126;2023-05-10T09:32:43;4.20;;;0.80;;
842;SDS011;407;48.884;9.126;2023-05-10T09:35:12;4.90;;;0.88;;
842;SDS011;407;48.884;9.126;2023-05-10T09:37:39;4.40;;;0.80;;
842;SDS011;407;48.884;9.126;2023-05-10T09:40:06;4.70;;;0.70;;
842;SDS011;407;48.884;9.126;2023-05-10T09:42:33;5.10;;;1.00;;
842;SDS011;407;48.884;9.126;2023-05-10T09:45:09;4.40;;;0.70;;
842;SDS011;407;48.884;9.126;2023-05-10T09:47:35;4.65;;;0.80;;
842;SDS011;407;48.884;9.126;2023-05-10T09:50:01;4.82;;;0.80;;
842;SDS011;407;48.884;9.126;2023-05-10T09:52:29;4.90;;;0.90;;
842;SDS011;407;48.884;9.126;2023-05-10T09:54:55;5.00;;;0.90;;
842;SDS011;407;48.884;9.126;2023-05-10T09:57:21;6.43;;;0.90;;
842;SDS011;407;48.884;9.126;2023-05-10T09:59:48;4.90;;;1.00;;
842;SDS011;407;48.884;9.126;2023-05-10T10:02:14;5.80;;;0.90;;
842;SDS011;407;48.884;9.126;2023-05-10T10:04:40;5.00;;;0.70;;
842;SDS011;407;48.884;9.126;2023-05-10T10:07:06;4.90;;;0.95;;
842;SDS011;407;48.884;9.126;2023-05-10T10:09:32;5.03;;;1.00;;
842;SDS011;407;48.884;9.126;2023-05-10T10:11:59;5.45;;;1.13;;
842;SDS011;407;48.884;9.126;2023-05-10T10:14:25;4.50;;;1.10;;
842;SDS011;407;48.884;9.126;2023-05-10T10:16:52;4.80;;;1.00;;
842;SDS011;407;48.884;9.126;2023-05-10T10:19:20;4.30;;;0.90;;
842;SDS011;407;48.884;9.126;2023-05-10T10:21:50;5.85;;;0.95;;
842;SDS011;407;48.884;9.126;2023-05-10T10:24:16;4.32;;;0.63;;
842;SDS011;407;48.884;9.126;2023-05-10T10:26:42;4.32;;;0.73;;
842;SDS011;407;48.884;9.126;2023-05-10T10:29:32;4.20;;;0.65;;
842;SDS011;407;48.884;9.126;2023-05-10T10:32:21;4.30;;;0.70;;
842;SDS011;407;48.884;9.126;2023-05-10T10:34:53;4.30;;;0.82;;
842;SDS011;407;48.884;9.126;2023-05-10T10:37:20;4.30;;;0.80;;
842;SDS011;407;48.884;9.126;2023-05-10T10:39:47;5.10;;;0.80;;
842;SDS011;407;48.884;9.126;2023-05-10T10:42:14;4.78;;;0.77;;
842;SDS011;407;48.884;9.126;2023-05-10T10:45:12;4.30;;;0.70;;
842;SDS011;407;48.884;9.126;2023-05-10T10:47:38;4.20;;;0.60;;
842;SDS011;407;48.884;9.126;2023-05-10T10:50:04;4.85;;;0.75;;
842;SDS011;407;48.884;9.126;2023-05-10T10:52:33;5.30;;;0.70;;
842;SDS011;407;48.884;9.126;2023-05-10T10:55:04;4.30;;;0.75;;
842;SDS011;407;48.884;9.126;2023-05-10T11:02:57;4.80;;;0.80;;
842;SDS011;407;48.884;9.126;2023-05-10T11:10:49;4.60;;;0.80;;
842;SDS011;407;48.884;9.126;2023-05-10T11:13:34;5.70;;;1.00;;
842;SDS011;407;48.884;9.126;2023-05-10T11:18:52;4.60;;;0.90;;
842;SDS011;407;48.884;9.126;2023-05-10T11:21:18;4.38;;;0.70;;
842;SDS011;407;48.884;9.126;2023-05-10T11:23:54;4.73;;;1.00;;
842;SDS011;407;48.884;9.126;2023-05-10T11:26:21;4.45;;;0.80;;
842;SDS011;407;48.884;9.126;2023-05-10T11:28:52;5.30;;;1.15;;
842;SDS011;407;48.884;9.126;2023-05-10T11:31:23;4.50;;;0.70;;
842;SDS011;407;48.884;9.126;2023-05-10T11:33:52;4.53;;;0.93;;
842;SDS011;407;48.884;9.126;2023-05-10T11:36:23;5.80;;;0.90;;
842;SDS011;407;48.884;9.126;2023-05-10T11:38:55;5.70;;;1.10;;
842;SDS011;407;48.884;9.126;2023-05-10T11:41:22;4.78;;;0.80;;
842;SDS011;407;48.884;9.126;2023-05-10T11:43:54;4.78;;;0.80;;
842;SDS011;407;48.884;9.126;2023-05-10T11:46:21;5.53;;;1.20;;
842;SDS011;407;48.884;9.126;2023-05-10T11:48:52;4.90;;;1.00;;
842;SDS011;407;48.884;9.126;2023-05-10T11:51:20;5.40;;;1.20;;
842;SDS011;407;48.884;9.126;2023-05-10T11:53:49;5.90;;;1.20;;
842;SDS011;407;48.884;9.126;2023-05-10T11:56:17;5.10;;;1.00;;
842;SDS011;407;48.884;9.126;2023-05-10T11:58:43;6.47;;;1.30;;
842;SDS011;407;48.884;9.126;2023-05-10T12:01:09;4.80;;;0.98;;
842;SDS011;407;48.884;9.126;2023-05-10T12:03:35;5.30;;;1.33;;
842;SDS011;407;48.884;9.126;2023-05-10T12:06:02;7.78;;;1.30;;
842;SDS011;407;48.884;9.126;2023-05-10T12:08:29;6.20;;;1.00;;
842;SDS011;407;48.884;9.126;2023-05-10T12:11:16;5.00;;;0.80;;
842;SDS011;407;48.884;9.126;2023-05-10T12:13:44;5.32;;;1.00;;
842;SDS011;407;48.884;9.126;2023-05-10T12:16:22;4.95;;;0.80;;
842;SDS011;407;48.884;9.126;2023-05-10T12:18:50;5.40;;;0.95;;
842;SDS011;407;48.884;9.126;2023-05-10T12:21:17;4.50;;;0.83;;
842;SDS011;407;48.884;9.126;2023-05-10T12:23:45;7.30;;;0.80;;
842;SDS011;407;48.884;9.126;2023-05-10T12:26:12;6.35;;;1.10;;
842;SDS011;407;48.884;9.126;2023-05-10T12:28:38;4.72;;;0.90;;
842;SDS011;407;48.884;9.126;2023-05-10T12:31:07;5.35;;;0.90;;
842;SDS011;407;48.884;9.126;2023-05-10T12:33:39;5.40;;;0.90;;
842;SDS011;407;48.884;9.126;2023-05-10T12:36:07;4.80;;;0.90;;
842;SDS011;407;48.884;9.126;2023-05-10T12:38:38;5.10;;;0.88;;
842;SDS011;407;48.884;9.126;2023-05-10T12:41:11;5.07;;;1.08;;
842;SDS011;407;48.884;9.126;2023-05-10T12:43:38;7.72;;;1.30;;
842;SDS011;407;48.884;9.126;2023-05-10T12:46:07;5.60;;;0.90;;
842;SDS011;407;48.884;9.126;2023-05-10T12:48:38;4.72;;;0.80;;
842;SDS011;407;48.884;9.126;2023-05-10T12:51:05;4.93;;;1.10;;
842;SDS011;407;48.884;9.126;2023-05-10T12:53:34;4.77;;;1.00;;
842;SDS011;407;48.884;9.126;2023-05-10T12:56:00;4.60;;;0.70;;
842;SDS011;407;48.884;9.126;2023-05-10T12:58:25;4.30;;;0.70;;
842;SDS011;407;48.884;9.126;2023-05-10T13:00:51;5.10;;;0.80;;
842;SDS011;407;48.884;9.126;2023-05-10T13:03:17;4.70;;;0.90;;
842;SDS011;407;48.884;9.126;2023-05-10T13:05:43;5.00;;;0.98;;
842;SDS011;407;48.884;9.126;2023-05-10T13:08:09;5.80;;;1.00;;
842;SDS011;407;48.884;9.126;2023-05-10T13:10:35;6.20;;;0.90;;
842;SDS011;407;48.884;9.126;2023-05-10T13:13:01;5.65;;;1.00;;
842;SDS011;407;48.884;9.126;2023-05-10T13:15:27;5.85;;;1.27;;
842;SDS011;407;48.884;9.126;2023-05-10T13:17:53;6.25;;;0.90;;
842;SDS011;407;48.884;9.126;2023-05-10T13:20:19;5.90;;;1.00;;
842;SDS011;407;48.884;9.126;2023-05-10T13:22:45;5.07;;;1.00;;
842;SDS011;407;48.884;9.126;2023-05-10T13:25:11;6.97;;;1.10;;
842;SDS011;407;48.884;9.126;2023-05-10T13:27:40;5.80;;;1.10;;
842;SDS011;407;48.884;9.126;2023-05-10T13:30:09;5.05;;;0.90;;
842;SDS011;407;48.884;9.126;2023-05-10T13:32:36;6.35;;;1.27;;
842;SDS011;407;48.884;9.126;2023-05-10T13:35:03;4.90;;;0.90;;
842;SDS011;407;48.884;9.126;2023-05-10T13:37:30;4.88;;;0.90;;
842;SDS011;407;48.884;9.126;2023-05-10T13:40:00;5.25;;;1.15;;
842;SDS011;407;48.884;9.126;2023-05-10T13:42:26;4.90;;;0.90;;
842;SDS011;407;48.884;9.126;2023-05-10T13:44:52;4.80;;;1.00;;
842;SDS011;407;48.884;9.126;2023-05-10T13:47:17;5.40;;;1.07;;
842;SDS011;407;48.884;9.126;2023-05-10T13:49:43;6.10;;;1.10;;
842;SDS011;407;48.884;9.126;2023-05-10T13:52:08;6.55;;;0.98;;
842;SDS011;407;48.884;9.126;2023-05-10T13:54:35;6.15;;;1.10;;
842;SDS011;407;48.884;9.126;2023-05-10T13:57:01;5.30;;;0.90;;
842;SDS011;407;48.884;9.126;2023-05-10T13:59:28;4.67;;;0.97;;
842;SDS011;407;48.884;9.126;2023-05-10T14:01:54;4.83;;;1.00;;
842;SDS011;407;48.884;9.126;2023-05-10T14:04:19;5.05;;;0.80;;
842;SDS011;407;48.884;9.126;2023-05-10T14:06:45;6.60;;;0.90;;
842;SDS011;407;48.884;9.126;2023-05-10T14:09:11;6.43;;;1.10;;
842;SDS011;407;48.884;9.126;2023-05-10T14:11:37;5.95;;;0.90;;
842;SDS011;407;48.884;9.126;2023-05-10T14:14:06;5.53;;;0.80;;
842;SDS011;407;48.884;9.126;2023-05-10T14:16:33;5.38;;;1.00;;
842;SDS011;407;48.884;9.126;2023-05-10T14:18:58;5.90;;;1.00;;
842;SDS011;407;48.884;9.126;2023-05-10T14:21:24;5.40;;;0.90;;
842;SDS011;407;48.884;9.126;2023-05-10T14:23:50;5.60;;;1.10;;
842;SDS011;407;48.884;9.126;2023-05-10T14:26:15;5.45;;;1.00;;
842;SDS011;407;48.884;9.126;2023-05-10T14:28:41;5.07;;;0.98;;
842;SDS011;407;48.884;9.126;2023-05-10T14:31:06;4.70;;;0.80;;
842;SDS011;407;48.884;9.126;2023-05-10T14:33:32;5.07;;;0.90;;
842;SDS011;407;48.884;9.126;2023-05-10T14:35:58;4.70;;;0.80;;
842;SDS011;407;48.884;9.126;2023-05-10T14:38:24;4.85;;;1.02;;
842;SDS011;407;48.884;9.126;2023-05-10T14:40:51;5.60;;;1.00;;
842;SDS011;407;48.884;9.126;2023-05-10T14:43:17;6.10;;;1.00;;
842;SDS011;407;48.884;9.126;2023-05-10T14:45:42;4.90;;;1.00;;
842;SDS011;407;48.884;9.126;2023-05-10T14:48:08;5.87;;;0.80;;
842;SDS011;407;48.884;9.126;2023-05-10T14:50:37;5.60;;;0.90;;
842;SDS011;407;48.884;9.126;2023-05-10T14:53:03;6.90;;;1.20;;
842;SDS011;407;48.884;9.126;2023-05-10T14:55:29;5.80;;;1.00;;
842;SDS011;407;48.884;9.126;2023-05-10T14:57:54;5.80;;;1.00;;
842;SDS011;407;48.884;9.126;2023-05-10T15:00:21;5.95;;;1.10;;
842;SDS011;407;48.884;9.126;2023-05-10T15:02:47;5.10;;;1.20;;
842;SDS011;407;48.884;9.126;2023-05-10T15:05:13;5.13;;;1.00;;
842;SDS011;407;48.884;9.126;2023-05-10T15:07:39;4.70;;;0.90;;
842;SDS011;407;48.884;9.126;2023-05-10T15:10:05;5.13;;;1.10;;
842;SDS011;407;48.884;9.126;2023-05-10T15:12:31;5.83;;;0.90;;
842;SDS011;407;48.884;9.126;2023-05-10T15:14:57;4.68;;;0.70;;
842;SDS011;407;48.884;9.126;2023-05-10T15:17:22;4.60;;;0.80;;
842;SDS011;407;48.884;9.126;2023-05-10T15:19:48;5.30;;;0.80;;
842;SDS011;407;48.884;9.126;2023-05-10T15:22:14;4.50;;;0.80;;
842;SDS011;407;48.884;9.126;2023-05-10T15:24:40;5.05;;;1.00;;
842;SDS011;407;48.884;9.126;2023-05-10T15:27:05;4.75;;;0.82;;
842;SDS011;407;48.884;9.126;2023-05-10T15:29:31;4.83;;;0.80;;
842;SDS011;407;48.884;9.126;2023-05-10T15:31:57;5.00;;;0.90;;
842;SDS011;407;48.884;9.126;2023-05-10T15:34:23;5.40;;;0.80;;
842;SDS011;407;48.884;9.126;2023-05-10T15:36:54;5.60;;;1.00;;
842;SDS011;407;48.884;9.126;2023-05-10T15:39:21;4.60;;;0.90;;
842;SDS011;407;48.884;9.126;2023-05-10T15:41:47;4.78;;;1.10;;
842;SDS011;407;48.884;9.126;2023-05-10T15:44:12;5.60;;;0.90;;
842;SDS011;407;48.884;9.126;2023-05-10T15:46:38;4.43;;;0.80;;
842;SDS011;407;48.884;9.126;2023-05-10T15:49:03;4.97;;;0.90;;
842;SDS011;407;48.884;9.126;2023-05-10T15:51:30;4.70;;;0.70;;
842;SDS011;407;48.884;9.126;2023-05-10T15:53:57;5.15;;;0.70;;
842;SDS011;407;48.884;9.126;2023-05-10T15:56:23;4.30;;;0.60;;
842;SDS011;407;48.884;9.126;2023-05-10T15:58:49;4.60;;;0.60;;
842;SDS011;407;48.884;9.126;2023-05-10T16:01:14;4.53;;;0.60;;
842;SDS011;407;48.884;9.126;2023-05-10T16:03:40;4.90;;;0.60;;
842;SDS011;407;48.884;9.126;2023-05-10T16:06:06;4.63;;;0.70;;
842;SDS011;407;48.884;9.126;2023-05-10T16:08:32;4.68;;;0.82;;
842;SDS011;407;48.884;9.126;2023-05-10T16:10:58;5.17;;;0.90;;
842;SDS011;407;48.884;9.126;2023-05-10T16:13:24;5.00;;;0.70;;